createdAt,value
2019-03-24T18:19:26.324Z,4.61
2019-03-24T18:24:23.891Z,4.20
2019-03-24T18:29:31.577Z,4.36
2019-03-24T18:34:39.190Z,3.98
2019-03-24T18:39:46.922Z,3.97
2019-03-24T18:44:54.532Z,3.91
2019-03-24T18:50:02.251Z,4.08
2019-03-24T18:55:09.887Z,3.60
2019-03-24T19:00:17.577Z,4.07
2019-03-24T19:05:25.163Z,4.20
2019-03-24T19:10:32.865Z,4.03
2019-03-24T19:15:40.468Z,4.41
2019-03-24T19:20:48.182Z,4.70
2019-03-24T19:25:55.779Z,4.91
2019-03-24T19:31:03.462Z,4.93
2019-03-24T19:36:11.077Z,5.67
2019-03-24T19:41:18.798Z,4.77
2019-03-24T19:46:26.434Z,5.19
2019-03-24T19:51:34.066Z,5.63
2019-03-24T19:56:41.697Z,4.68
2019-03-24T20:01:49.331Z,4.68
2019-03-24T20:06:57.010Z,4.97
2019-03-24T20:12:04.721Z,4.75
2019-03-24T20:17:12.334Z,5.09
2019-03-24T20:22:20.477Z,4.65
2019-03-24T20:27:28.070Z,4.63
2019-03-24T20:32:35.753Z,5.07
2019-03-24T20:37:43.378Z,5.40
2019-03-24T20:42:51.210Z,5.31
2019-03-24T20:47:58.837Z,5.11
2019-03-24T20:53:17.686Z,4.69
2019-03-24T20:58:13.720Z,4.99
2019-03-24T21:03:21.383Z,4.94
2019-03-24T21:08:29.003Z,5.20
2019-03-24T21:13:36.681Z,5.09
2019-03-24T21:18:44.312Z,5.42
2019-03-24T21:23:51.985Z,5.32
2019-03-24T21:28:59.637Z,5.10
2019-03-24T21:34:07.331Z,5.53
2019-03-24T21:39:14.938Z,5.64
2019-03-24T21:44:22.716Z,5.30
2019-03-24T21:49:30.356Z,6.42
2019-03-24T21:54:37.983Z,6.09
2019-03-24T21:59:45.601Z,6.14
2019-03-24T22:04:53.239Z,6.12
2019-03-24T22:10:00.388Z,6.27
2019-03-24T22:15:08.077Z,5.80
2019-03-24T22:20:15.706Z,5.44
2019-03-24T22:25:23.389Z,5.13
2019-03-24T22:30:31.021Z,4.54
2019-03-24T22:35:38.689Z,4.54
2019-03-24T22:40:46.319Z,4.20
2019-03-24T22:45:53.962Z,4.36
2019-03-24T22:51:01.586Z,4.42
2019-03-24T22:56:09.253Z,4.12
2019-03-24T23:01:16.846Z,4.94
2019-03-24T23:06:24.485Z,4.24
2019-03-24T23:11:32.117Z,4.44
2019-03-24T23:16:39.783Z,3.88
2019-03-24T23:21:47.414Z,4.01
2019-03-24T23:26:55.056Z,3.76
2019-03-24T23:32:02.639Z,3.72
2019-03-24T23:37:10.240Z,3.98
2019-03-24T23:42:17.850Z,3.86
2019-03-24T23:47:25.494Z,3.77
2019-03-24T23:52:33.082Z,3.93
2019-03-24T23:57:40.793Z,4.00
